sensor_id;sensor_type;location;lat;lon;timestamp;P1;durP1;ratioP1;P2;durP2;ratioP2
41921;SDS011;27609;51.002;5.354;2023-02-28T00:00:15;8.30;;;5.65;;
41921;SDS011;27609;51.002;5.354;2023-02-28T00:02:41;13.02;;;6.78;;
41921;SDS011;27609;51.002;5.354;2023-02-28T00:05:09;11.95;;;5.90;;
41921;SDS011;27609;51.002;5.354;2023-02-28T00:07:37;8.05;;;5.07;;
41921;SDS011;27609;51.002;5.354;2023-02-28T00:10:04;7.72;;;5.93;;
41921;SDS011;27609;51.002;5.354;2023-02-28T00:12:32;12.38;;;7.10;;
41921;SDS011;27609;51.002;5.354;2023-02-28T00:15:02;11.75;;;5.45;;
41921;SDS011;27609;51.002;5.354;2023-02-28T00:17:30;9.98;;;5.82;;
41921;SDS011;27609;51.002;5.354;2023-02-28T00:19:56;9.45;;;5.93;;
41921;SDS011;27609;51.002;5.354;2023-02-28T00:22:26;10.65;;;5.97;;
41921;SDS011;27609;51.002;5.354;2023-02-28T00:24:53;9.60;;;6.40;;
41921;SDS011;27609;51.002;5.354;2023-02-28T00:27:18;9.05;;;5.60;;
41921;SDS011;27609;51.002;5.354;2023-02-28T00:29:45;9.63;;;6.07;;
41921;SDS011;27609;51.002;5.354;2023-02-28T00:32:11;9.15;;;5.57;;
41921;SDS011;27609;51.002;5.354;2023-02-28T00:34:37;10.23;;;5.43;;
41921;SDS011;27609;51.002;5.354;2023-02-28T00:37:03;10.52;;;5.85;;
41921;SDS011;27609;51.002;5.354;2023-02-28T00:39:30;10.77;;;5.80;;
41921;SDS011;27609;51.002;5.354;2023-02-28T00:41:57;12.35;;;6.15;;
41921;SDS011;27609;51.002;5.354;2023-02-28T00:44:23;13.50;;;6.53;;
41921;SDS011;27609;51.002;5.354;2023-02-28T00:46:49;13.20;;;6.30;;
41921;SDS011;27609;51.002;5.354;2023-02-28T00:49:14;10.95;;;5.95;;
41921;SDS011;27609;51.002;5.354;2023-02-28T00:51:40;6.70;;;5.72;;
41921;SDS011;27609;51.002;5.354;2023-02-28T00:54:06;8.15;;;6.47;;
41921;SDS011;27609;51.002;5.354;2023-02-28T00:56:31;10.68;;;6.53;;
41921;SDS011;27609;51.002;5.354;2023-02-28T00:58:57;10.75;;;6.25;;
41921;SDS011;27609;51.002;5.354;2023-02-28T01:01:22;9.38;;;6.28;;
41921;SDS011;27609;51.002;5.354;2023-02-28T01:03:48;8.75;;;6.18;;
41921;SDS011;27609;51.002;5.354;2023-02-28T01:06:14;8.73;;;4.95;;
41921;SDS011;27609;51.002;5.354;2023-02-28T01:08:39;13.05;;;6.75;;
41921;SDS011;27609;51.002;5.354;2023-02-28T01:11:12;12.20;;;6.05;;
41921;SDS011;27609;51.002;5.354;2023-02-28T01:13:40;8.30;;;5.28;;
41921;SDS011;27609;51.002;5.354;2023-02-28T01:16:07;14.27;;;5.57;;
41921;SDS011;27609;51.002;5.354;2023-02-28T01:18:33;10.35;;;6.20;;
41921;SDS011;27609;51.002;5.354;2023-02-28T01:21:02;9.35;;;5.55;;
41921;SDS011;27609;51.002;5.354;2023-02-28T01:23:32;8.65;;;6.00;;
41921;SDS011;27609;51.002;5.354;2023-02-28T01:26:03;11.70;;;6.47;;
41921;SDS011;27609;51.002;5.354;2023-02-28T01:28:30;9.38;;;6.25;;
41921;SDS011;27609;51.002;5.354;2023-02-28T01:30:56;12.50;;;6.13;;
41921;SDS011;27609;51.002;5.354;2023-02-28T01:33:22;9.55;;;5.53;;
41921;SDS011;27609;51.002;5.354;2023-02-28T01:35:48;11.38;;;5.88;;
41921;SDS011;27609;51.002;5.354;2023-02-28T01:38:13;9.13;;;5.90;;
41921;SDS011;27609;51.002;5.354;2023-02-28T01:40:39;9.75;;;6.63;;
41921;SDS011;27609;51.002;5.354;2023-02-28T01:43:27;10.70;;;6.30;;
41921;SDS011;27609;51.002;5.354;2023-02-28T01:46:09;12.45;;;6.00;;
41921;SDS011;27609;51.002;5.354;2023-02-28T01:48:36;16.23;;;6.93;;
41921;SDS011;27609;51.002;5.354;2023-02-28T01:51:07;16.95;;;7.20;;
41921;SDS011;27609;51.002;5.354;2023-02-28T01:53:56;11.00;;;6.75;;
41921;SDS011;27609;51.002;5.354;2023-02-28T01:56:32;9.40;;;6.45;;
41921;SDS011;27609;51.002;5.354;2023-02-28T01:59:01;13.07;;;7.05;;
41921;SDS011;27609;51.002;5.354;2023-02-28T02:01:28;14.25;;;7.47;;
41921;SDS011;27609;51.002;5.354;2023-02-28T02:03:59;9.40;;;6.68;;
41921;SDS011;27609;51.002;5.354;2023-02-28T02:06:34;19.23;;;6.03;;
41921;SDS011;27609;51.002;5.354;2023-02-28T02:09:05;9.73;;;6.60;;
41921;SDS011;27609;51.002;5.354;2023-02-28T02:11:31;16.02;;;7.53;;
41921;SDS011;27609;51.002;5.354;2023-02-28T02:30:41;13.55;;;6.68;;
41921;SDS011;27609;51.002;5.354;2023-02-28T02:36:48;9.93;;;6.10;;
41921;SDS011;27609;51.002;5.354;2023-02-28T02:39:19;7.53;;;5.35;;
41921;SDS011;27609;51.002;5.354;2023-02-28T02:42:19;8.32;;;6.20;;
41921;SDS011;27609;51.002;5.354;2023-02-28T02:45:00;9.75;;;5.57;;
41921;SDS011;27609;51.002;5.354;2023-02-28T02:47:31;9.07;;;5.25;;
41921;SDS011;27609;51.002;5.354;2023-02-28T02:49:59;9.52;;;7.00;;
41921;SDS011;27609;51.002;5.354;2023-02-28T02:52:32;14.23;;;6.57;;
41921;SDS011;27609;51.002;5.354;2023-02-28T02:55:03;12.43;;;6.28;;
41921;SDS011;27609;51.002;5.354;2023-02-28T02:57:40;9.88;;;6.18;;
41921;SDS011;27609;51.002;5.354;2023-02-28T03:00:10;7.68;;;5.53;;
41921;SDS011;27609;51.002;5.354;2023-02-28T03:02:37;12.77;;;6.32;;
41921;SDS011;27609;51.002;5.354;2023-02-28T03:05:06;10.95;;;6.07;;
41921;SDS011;27609;51.002;5.354;2023-02-28T03:07:39;8.05;;;5.78;;
41921;SDS011;27609;51.002;5.354;2023-02-28T03:10:25;9.15;;;6.03;;
41921;SDS011;27609;51.002;5.354;2023-02-28T03:16:36;12.32;;;6.32;;
41921;SDS011;27609;51.002;5.354;2023-02-28T03:19:16;11.32;;;5.57;;
41921;SDS011;27609;51.002;5.354;2023-02-28T03:21:55;9.52;;;6.40;;
41921;SDS011;27609;51.002;5.354;2023-02-28T03:27:16;9.80;;;6.53;;
41921;SDS011;27609;51.002;5.354;2023-02-28T03:32:28;8.70;;;5.55;;
41921;SDS011;27609;51.002;5.354;2023-02-28T03:37:46;10.40;;;6.38;;
41921;SDS011;27609;51.002;5.354;2023-02-28T03:40:19;12.70;;;7.00;;
41921;SDS011;27609;51.002;5.354;2023-02-28T03:42:48;12.55;;;7.63;;
41921;SDS011;27609;51.002;5.354;2023-02-28T03:45:23;11.32;;;7.32;;
41921;SDS011;27609;51.002;5.354;2023-02-28T03:48:03;14.25;;;7.60;;
41921;SDS011;27609;51.002;5.354;2023-02-28T03:53:06;10.55;;;6.50;;
41921;SDS011;27609;51.002;5.354;2023-02-28T03:55:51;16.10;;;7.18;;
41921;SDS011;27609;51.002;5.354;2023-02-28T03:58:26;11.95;;;7.10;;
41921;SDS011;27609;51.002;5.354;2023-02-28T04:01:15;12.15;;;7.43;;
41921;SDS011;27609;51.002;5.354;2023-02-28T04:03:52;13.27;;;8.10;;
41921;SDS011;27609;51.002;5.354;2023-02-28T04:06:19;11.65;;;7.38;;
41921;SDS011;27609;51.002;5.354;2023-02-28T04:08:47;10.95;;;6.95;;
41921;SDS011;27609;51.002;5.354;2023-02-28T04:11:18;13.13;;;7.13;;
41921;SDS011;27609;51.002;5.354;2023-02-28T04:14:00;12.40;;;7.22;;
41921;SDS011;27609;51.002;5.354;2023-02-28T04:16:33;13.57;;;7.87;;
41921;SDS011;27609;51.002;5.354;2023-02-28T04:19:00;14.65;;;7.30;;
41921;SDS011;27609;51.002;5.354;2023-02-28T04:21:30;12.77;;;7.28;;
41921;SDS011;27609;51.002;5.354;2023-02-28T04:24:04;11.23;;;7.10;;
41921;SDS011;27609;51.002;5.354;2023-02-28T04:26:31;15.52;;;6.95;;
41921;SDS011;27609;51.002;5.354;2023-02-28T04:28:58;13.40;;;6.97;;
41921;SDS011;27609;51.002;5.354;2023-02-28T04:31:24;13.88;;;7.90;;
41921;SDS011;27609;51.002;5.354;2023-02-28T04:33:50;11.30;;;7.93;;
41921;SDS011;27609;51.002;5.354;2023-02-28T04:36:16;15.15;;;7.63;;
41921;SDS011;27609;51.002;5.354;2023-02-28T04:38:43;11.02;;;6.82;;
41921;SDS011;27609;51.002;5.354;2023-02-28T04:41:09;12.90;;;6.75;;
41921;SDS011;27609;51.002;5.354;2023-02-28T04:43:35;9.10;;;7.30;;
41921;SDS011;27609;51.002;5.354;2023-02-28T04:46:02;10.15;;;7.13;;
41921;SDS011;27609;51.002;5.354;2023-02-28T04:48:30;14.55;;;7.63;;
41921;SDS011;27609;51.002;5.354;2023-02-28T04:51:01;18.15;;;7.57;;
41921;SDS011;27609;51.002;5.354;2023-02-28T04:53:28;14.05;;;7.45;;
41921;SDS011;27609;51.002;5.354;2023-02-28T04:55:54;10.20;;;7.13;;
41921;SDS011;27609;51.002;5.354;2023-02-28T04:58:20;14.25;;;7.55;;
41921;SDS011;27609;51.002;5.354;2023-02-28T05:00:49;11.77;;;8.18;;
41921;SDS011;27609;51.002;5.354;2023-02-28T05:03:15;10.65;;;6.63;;
41921;SDS011;27609;51.002;5.354;2023-02-28T05:05:40;18.10;;;7.63;;
41921;SDS011;27609;51.002;5.354;2023-02-28T05:08:06;14.05;;;8.18;;
41921;SDS011;27609;51.002;5.354;2023-02-28T05:10:32;10.50;;;7.03;;
41921;SDS011;27609;51.002;5.354;2023-02-28T05:12:58;15.98;;;8.00;;
41921;SDS011;27609;51.002;5.354;2023-02-28T05:15:23;11.13;;;7.25;;
41921;SDS011;27609;51.002;5.354;2023-02-28T05:17:49;13.95;;;7.15;;
41921;SDS011;27609;51.002;5.354;2023-02-28T05:20:15;15.93;;;7.75;;
41921;SDS011;27609;51.002;5.354;2023-02-28T05:22:42;11.88;;;7.40;;
41921;SDS011;27609;51.002;5.354;2023-02-28T05:25:10;12.77;;;7.20;;
41921;SDS011;27609;51.002;5.354;2023-02-28T05:27:47;12.02;;;7.97;;
41921;SDS011;27609;51.002;5.354;2023-02-28T05:30:13;15.98;;;7.90;;
41921;SDS011;27609;51.002;5.354;2023-02-28T05:32:39;17.90;;;8.82;;
41921;SDS011;27609;51.002;5.354;2023-02-28T05:35:08;13.07;;;8.25;;
41921;SDS011;27609;51.002;5.354;2023-02-28T05:37:37;18.90;;;7.78;;
41921;SDS011;27609;51.002;5.354;2023-02-28T05:40:04;18.85;;;8.38;;
41921;SDS011;27609;51.002;5.354;2023-02-28T05:42:32;17.25;;;8.63;;
41921;SDS011;27609;51.002;5.354;2023-02-28T05:44:58;13.85;;;9.32;;
41921;SDS011;27609;51.002;5.354;2023-02-28T05:47:24;16.38;;;9.23;;
41921;SDS011;27609;51.002;5.354;2023-02-28T05:49:49;16.85;;;9.73;;
41921;SDS011;27609;51.002;5.354;2023-02-28T05:52:15;16.23;;;8.77;;
41921;SDS011;27609;51.002;5.354;2023-02-28T05:54:42;14.73;;;9.27;;
41921;SDS011;27609;51.002;5.354;2023-02-28T05:57:07;15.90;;;9.02;;
41921;SDS011;27609;51.002;5.354;2023-02-28T05:59:33;21.75;;;8.73;;
41921;SDS011;27609;51.002;5.354;2023-02-28T06:01:59;14.20;;;8.02;;
41921;SDS011;27609;51.002;5.354;2023-02-28T06:04:24;13.40;;;8.65;;
41921;SDS011;27609;51.002;5.354;2023-02-28T06:06:50;18.20;;;10.38;;
41921;SDS011;27609;51.002;5.354;2023-02-28T06:09:16;16.92;;;8.38;;
41921;SDS011;27609;51.002;5.354;2023-02-28T06:11:43;18.15;;;10.43;;
41921;SDS011;27609;51.002;5.354;2023-02-28T06:14:14;15.93;;;8.95;;
41921;SDS011;27609;51.002;5.354;2023-02-28T06:16:42;16.85;;;10.10;;
41921;SDS011;27609;51.002;5.354;2023-02-28T06:19:08;17.60;;;10.02;;
41921;SDS011;27609;51.002;5.354;2023-02-28T06:21:34;20.55;;;10.95;;
41921;SDS011;27609;51.002;5.354;2023-02-28T06:24:00;18.52;;;10.02;;
41921;SDS011;27609;51.002;5.354;2023-02-28T06:26:26;17.08;;;10.80;;
41921;SDS011;27609;51.002;5.354;2023-02-28T06:28:52;20.58;;;10.07;;
41921;SDS011;27609;51.002;5.354;2023-02-28T06:31:18;19.80;;;10.90;;
41921;SDS011;27609;51.002;5.354;2023-02-28T06:33:44;19.02;;;9.65;;
41921;SDS011;27609;51.002;5.354;2023-02-28T06:36:11;14.93;;;8.82;;
41921;SDS011;27609;51.002;5.354;2023-02-28T06:38:38;20.05;;;9.43;;
41921;SDS011;27609;51.002;5.354;2023-02-28T06:41:05;15.43;;;9.20;;
41921;SDS011;27609;51.002;5.354;2023-02-28T06:43:32;14.90;;;9.02;;
41921;SDS011;27609;51.002;5.354;2023-02-28T06:46:00;14.90;;;8.00;;
41921;SDS011;27609;51.002;5.354;2023-02-28T06:48:28;12.45;;;8.18;;
41921;SDS011;27609;51.002;5.354;2023-02-28T06:51:03;15.75;;;8.13;;
41921;SDS011;27609;51.002;5.354;2023-02-28T06:53:31;12.52;;;7.45;;
41921;SDS011;27609;51.002;5.354;2023-02-28T06:55:57;11.52;;;7.90;;
41921;SDS011;27609;51.002;5.354;2023-02-28T06:58:23;15.95;;;9.65;;
41921;SDS011;27609;51.002;5.354;2023-02-28T07:00:50;13.05;;;7.75;;
41921;SDS011;27609;51.002;5.354;2023-02-28T07:03:17;11.35;;;7.07;;
41921;SDS011;27609;51.002;5.354;2023-02-28T07:05:43;9.23;;;6.47;;
41921;SDS011;27609;51.002;5.354;2023-02-28T07:08:10;12.68;;;6.55;;
41921;SDS011;27609;51.002;5.354;2023-02-28T07:10:36;10.25;;;5.78;;
41921;SDS011;27609;51.002;5.354;2023-02-28T07:13:03;9.20;;;5.43;;
41921;SDS011;27609;51.002;5.354;2023-02-28T07:15:30;8.48;;;5.97;;
41921;SDS011;27609;51.002;5.354;2023-02-28T07:17:56;8.52;;;5.25;;
41921;SDS011;27609;51.002;5.354;2023-02-28T07:20:22;8.00;;;4.95;;
41921;SDS011;27609;51.002;5.354;2023-02-28T07:22:48;8.30;;;4.70;;
41921;SDS011;27609;51.002;5.354;2023-02-28T07:25:21;13.38;;;5.75;;
41921;SDS011;27609;51.002;5.354;2023-02-28T07:27:48;8.65;;;5.03;;
41921;SDS011;27609;51.002;5.354;2023-02-28T07:30:14;8.57;;;5.18;;
41921;SDS011;27609;51.002;5.354;2023-02-28T07:32:40;9.07;;;4.78;;
41921;SDS011;27609;51.002;5.354;2023-02-28T07:35:05;9.10;;;4.65;;
41921;SDS011;27609;51.002;5.354;2023-02-28T07:37:31;9.10;;;5.00;;
41921;SDS011;27609;51.002;5.354;2023-02-28T07:40:01;6.23;;;4.63;;
41921;SDS011;27609;51.002;5.354;2023-02-28T07:42:33;5.55;;;4.40;;
41921;SDS011;27609;51.002;5.354;2023-02-28T07:45:00;7.40;;;4.82;;
41921;SDS011;27609;51.002;5.354;2023-02-28T07:47:26;8.32;;;4.40;;
41921;SDS011;27609;51.002;5.354;2023-02-28T07:49:53;9.10;;;4.40;;
41921;SDS011;27609;51.002;5.354;2023-02-28T07:52:19;5.80;;;4.32;;
41921;SDS011;27609;51.002;5.354;2023-02-28T07:54:44;7.80;;;4.90;;
41921;SDS011;27609;51.002;5.354;2023-02-28T07:57:10;9.38;;;5.10;;
41921;SDS011;27609;51.002;5.354;2023-02-28T07:59:36;10.27;;;4.63;;
41921;SDS011;27609;51.002;5.354;2023-02-28T08:02:01;8.52;;;4.35;;
41921;SDS011;27609;51.002;5.354;2023-02-28T08:04:27;6.95;;;3.72;;
41921;SDS011;27609;51.002;5.354;2023-02-28T08:06:56;6.45;;;4.45;;
41921;SDS011;27609;51.002;5.354;2023-02-28T08:09:22;7.55;;;4.95;;
41921;SDS011;27609;51.002;5.354;2023-02-28T08:11:47;7.53;;;4.63;;
41921;SDS011;27609;51.002;5.354;2023-02-28T08:14:13;7.10;;;4.10;;
41921;SDS011;27609;51.002;5.354;2023-02-28T08:16:39;6.13;;;4.30;;
41921;SDS011;27609;51.002;5.354;2023-02-28T08:19:04;6.97;;;4.25;;
41921;SDS011;27609;51.002;5.354;2023-02-28T08:21:30;4.95;;;3.95;;
41921;SDS011;27609;51.002;5.354;2023-02-28T08:23:56;7.47;;;4.00;;
41921;SDS011;27609;51.002;5.354;2023-02-28T08:26:22;6.32;;;4.50;;
41921;SDS011;27609;51.002;5.354;2023-02-28T08:28:47;7.43;;;4.40;;
41921;SDS011;27609;51.002;5.354;2023-02-28T08:31:14;7.35;;;4.55;;
41921;SDS011;27609;51.002;5.354;2023-02-28T08:33:41;7.05;;;4.22;;
41921;SDS011;27609;51.002;5.354;2023-02-28T08:36:08;8.10;;;4.53;;
41921;SDS011;27609;51.002;5.354;2023-02-28T08:38:35;8.15;;;4.40;;
41921;SDS011;27609;51.002;5.354;2023-02-28T08:41:02;6.05;;;4.10;;
41921;SDS011;27609;51.002;5.354;2023-02-28T08:45:58;5.90;;;3.50;;
41921;SDS011;27609;51.002;5.354;2023-02-28T08:48:28;8.27;;;3.50;;
41921;SDS011;27609;51.002;5.354;2023-02-28T08:50:59;5.03;;;3.50;;
41921;SDS011;27609;51.002;5.354;2023-02-28T08:53:27;3.88;;;3.20;;
41921;SDS011;27609;51.002;5.354;2023-02-28T08:55:59;4.93;;;3.75;;
41921;SDS011;27609;51.002;5.354;2023-02-28T08:58:27;7.85;;;3.53;;
41921;SDS011;27609;51.002;5.354;2023-02-28T09:00:53;6.68;;;3.60;;
41921;SDS011;27609;51.002;5.354;2023-02-28T09:03:19;5.57;;;3.17;;
41921;SDS011;27609;51.002;5.354;2023-02-28T09:05:55;3.83;;;2.75;;
41921;SDS011;27609;51.002;5.354;2023-02-28T09:08:23;5.68;;;2.80;;
41921;SDS011;27609;51.002;5.354;2023-02-28T09:10:50;5.25;;;3.17;;
41921;SDS011;27609;51.002;5.354;2023-02-28T09:13:17;4.65;;;3.00;;
41921;SDS011;27609;51.002;5.354;2023-02-28T09:15:43;3.72;;;3.08;;
41921;SDS011;27609;51.002;5.354;2023-02-28T09:18:09;5.30;;;3.25;;
41921;SDS011;27609;51.002;5.354;2023-02-28T09:20:37;5.45;;;2.85;;
41921;SDS011;27609;51.002;5.354;2023-02-28T09:23:04;3.30;;;3.00;;
41921;SDS011;27609;51.002;5.354;2023-02-28T09:25:30;4.20;;;2.60;;
41921;SDS011;27609;51.002;5.354;2023-02-28T09:27:56;3.55;;;2.30;;
41921;SDS011;27609;51.002;5.354;2023-02-28T09:30:22;4.78;;;2.42;;
41921;SDS011;27609;51.002;5.354;2023-02-28T09:32:48;5.07;;;2.47;;
41921;SDS011;27609;51.002;5.354;2023-02-28T09:35:23;2.80;;;2.38;;
41921;SDS011;27609;51.002;5.354;2023-02-28T09:37:50;3.15;;;2.10;;
41921;SDS011;27609;51.002;5.354;2023-02-28T09:40:20;3.38;;;2.08;;
41921;SDS011;27609;51.002;5.354;2023-02-28T09:42:49;3.80;;;2.43;;
41921;SDS011;27609;51.002;5.354;2023-02-28T09:45:29;3.63;;;2.08;;
41921;SDS011;27609;51.002;5.354;2023-02-28T09:48:11;3.97;;;2.38;;
41921;SDS011;27609;51.002;5.354;2023-02-28T09:50:45;4.05;;;2.15;;
41921;SDS011;27609;51.002;5.354;2023-02-28T09:53:27;2.50;;;2.05;;
41921;SDS011;27609;51.002;5.354;2023-02-28T09:55:59;3.92;;;2.17;;
41921;SDS011;27609;51.002;5.354;2023-02-28T09:58:37;2.53;;;2.15;;
41921;SDS011;27609;51.002;5.354;2023-02-28T10:01:18;2.50;;;2.30;;
41921;SDS011;27609;51.002;5.354;2023-02-28T10:09:22;2.40;;;1.80;;
41921;SDS011;27609;51.002;5.354;2023-02-28T10:11:51;3.70;;;2.17;;
41921;SDS011;27609;51.002;5.354;2023-02-28T10:14:22;3.70;;;2.03;;
41921;SDS011;27609;51.002;5.354;2023-02-28T10:19:23;6.28;;;2.50;;
41921;SDS011;27609;51.002;5.354;2023-02-28T10:22:10;3.67;;;1.88;;
41921;SDS011;27609;51.002;5.354;2023-02-28T10:24:43;2.75;;;2.10;;
41921;SDS011;27609;51.002;5.354;2023-02-28T10:27:14;6.50;;;2.20;;
41921;SDS011;27609;51.002;5.354;2023-02-28T10:29:43;2.50;;;2.10;;
41921;SDS011;27609;51.002;5.354;2023-02-28T10:32:14;2.20;;;2.00;;
41921;SDS011;27609;51.002;5.354;2023-02-28T10:34:42;2.47;;;2.17;;
41921;SDS011;27609;51.002;5.354;2023-02-28T10:37:09;5.15;;;2.47;;
41921;SDS011;27609;51.002;5.354;2023-02-28T10:39:42;3.35;;;2.50;;
41921;SDS011;27609;51.002;5.354;2023-02-28T10:42:19;4.03;;;2.05;;
41921;SDS011;27609;51.002;5.354;2023-02-28T10:47:54;2.78;;;2.13;;
41921;SDS011;27609;51.002;5.354;2023-02-28T10:53:13;2.10;;;1.67;;
41921;SDS011;27609;51.002;5.354;2023-02-28T10:55:44;3.05;;;2.08;;
41921;SDS011;27609;51.002;5.354;2023-02-28T10:58:23;2.35;;;1.90;;
41921;SDS011;27609;51.002;5.354;2023-02-28T11:00:50;2.03;;;1.65;;
41921;SDS011;27609;51.002;5.354;2023-02-28T11:03:25;2.35;;;1.73;;
41921;SDS011;27609;51.002;5.354;2023-02-28T11:05:54;2.50;;;1.38;;
41921;SDS011;27609;51.002;5.354;2023-02-28T11:08:20;2.20;;;1.70;;
41921;SDS011;27609;51.002;5.354;2023-02-28T11:10:47;2.42;;;1.65;;
41921;SDS011;27609;51.002;5.354;2023-02-28T11:13:20;2.25;;;1.80;;
41921;SDS011;27609;51.002;5.354;2023-02-28T11:15:51;2.50;;;1.95;;
41921;SDS011;27609;51.002;5.354;2023-02-28T11:21:07;3.42;;;1.73;;
41921;SDS011;27609;51.002;5.354;2023-02-28T11:23:36;1.80;;;1.70;;
41921;SDS011;27609;51.002;5.354;2023-02-28T11:26:05;2.33;;;1.65;;
41921;SDS011;27609;51.002;5.354;2023-02-28T11:28:41;2.22;;;1.90;;
41921;SDS011;27609;51.002;5.354;2023-02-28T11:38:43;3.40;;;1.70;;
41921;SDS011;27609;51.002;5.354;2023-02-28T11:49:14;9.60;;;1.98;;
41921;SDS011;27609;51.002;5.354;2023-02-28T11:51:47;8.25;;;1.85;;
41921;SDS011;27609;51.002;5.354;2023-02-28T11:57:08;2.45;;;1.75;;
41921;SDS011;27609;51.002;5.354;2023-02-28T12:02:55;1.73;;;1.63;;
41921;SDS011;27609;51.002;5.354;2023-02-28T12:05:24;3.30;;;2.33;;
41921;SDS011;27609;51.002;5.354;2023-02-28T12:16:07;5.68;;;2.03;;
41921;SDS011;27609;51.002;5.354;2023-02-28T12:21:31;2.05;;;1.85;;
41921;SDS011;27609;51.002;5.354;2023-02-28T12:29:43;8.20;;;2.50;;
41921;SDS011;27609;51.002;5.354;2023-02-28T12:32:19;2.65;;;2.45;;
41921;SDS011;27609;51.002;5.354;2023-02-28T12:34:52;3.75;;;1.80;;
41921;SDS011;27609;51.002;5.354;2023-02-28T12:37:25;2.50;;;2.30;;
41921;SDS011;27609;51.002;5.354;2023-02-28T12:40:00;2.28;;;2.00;;
41921;SDS011;27609;51.002;5.354;2023-02-28T12:42:32;4.55;;;2.28;;
41921;SDS011;27609;51.002;5.354;2023-02-28T12:47:43;3.22;;;2.22;;
41921;SDS011;27609;51.002;5.354;2023-02-28T12:50:11;4.00;;;2.45;;
41921;SDS011;27609;51.002;5.354;2023-02-28T12:52:42;2.95;;;2.65;;
41921;SDS011;27609;51.002;5.354;2023-02-28T12:55:46;3.80;;;2.22;;
41921;SDS011;27609;51.002;5.354;2023-02-28T12:58:20;4.05;;;2.60;;
41921;SDS011;27609;51.002;5.354;2023-02-28T13:04:14;3.72;;;2.42;;
41921;SDS011;27609;51.002;5.354;2023-02-28T13:09:53;2.65;;;2.08;;
41921;SDS011;27609;51.002;5.354;2023-02-28T13:12:20;2.97;;;2.35;;
41921;SDS011;27609;51.002;5.354;2023-02-28T13:14:47;3.20;;;2.42;;
41921;SDS011;27609;51.002;5.354;2023-02-28T13:17:21;4.45;;;2.63;;
41921;SDS011;27609;51.002;5.354;2023-02-28T13:25:04;5.20;;;1.90;;
41921;SDS011;27609;51.002;5.354;2023-02-28T13:27:49;5.55;;;2.70;;
41921;SDS011;27609;51.002;5.354;2023-02-28T13:36:07;3.25;;;2.50;;
41921;SDS011;27609;51.002;5.354;2023-02-28T13:38:36;3.88;;;2.13;;
41921;SDS011;27609;51.002;5.354;2023-02-28T13:44:06;3.17;;;2.20;;
41921;SDS011;27609;51.002;5.354;2023-02-28T14:08:34;3.78;;;2.60;;
41921;SDS011;27609;51.002;5.354;2023-02-28T14:11:05;3.40;;;2.50;;
41921;SDS011;27609;51.002;5.354;2023-02-28T14:16:15;2.97;;;2.40;;
41921;SDS011;27609;51.002;5.354;2023-02-28T14:19:01;5.45;;;2.75;;
41921;SDS011;27609;51.002;5.354;2023-02-28T14:21:51;2.65;;;2.45;;
41921;SDS011;27609;51.002;5.354;2023-02-28T14:33:13;3.30;;;2.63;;
41921;SDS011;27609;51.002;5.354;2023-02-28T14:36:09;5.05;;;3.55;;
41921;SDS011;27609;51.002;5.354;2023-02-28T14:38:51;5.30;;;2.60;;
41921;SDS011;27609;51.002;5.354;2023-02-28T14:41:24;2.28;;;2.08;;
41921;SDS011;27609;51.002;5.354;2023-02-28T14:44:01;3.20;;;2.60;;
41921;SDS011;27609;51.002;5.354;2023-02-28T14:46:38;3.72;;;2.55;;
41921;SDS011;27609;51.002;5.354;2023-02-28T14:49:05;3.25;;;1.98;;
41921;SDS011;27609;51.002;5.354;2023-02-28T14:51:37;2.97;;;2.17;;
41921;SDS011;27609;51.002;5.354;2023-02-28T14:54:03;4.18;;;2.20;;
41921;SDS011;27609;51.002;5.354;2023-02-28T14:56:34;4.65;;;2.20;;
41921;SDS011;27609;51.002;5.354;2023-02-28T14:59:02;4.22;;;3.50;;
41921;SDS011;27609;51.002;5.354;2023-02-28T15:01:28;2.72;;;2.30;;
41921;SDS011;27609;51.002;5.354;2023-02-28T15:03:59;6.15;;;4.07;;
41921;SDS011;27609;51.002;5.354;2023-02-28T15:06:30;9.32;;;2.95;;
41921;SDS011;27609;51.002;5.354;2023-02-28T15:09:06;4.95;;;3.00;;
41921;SDS011;27609;51.002;5.354;2023-02-28T15:11:45;3.47;;;2.15;;
41921;SDS011;27609;51.002;5.354;2023-02-28T15:14:17;4.40;;;2.47;;
41921;SDS011;27609;51.002;5.354;2023-02-28T15:16:45;3.20;;;2.88;;
41921;SDS011;27609;51.002;5.354;2023-02-28T15:21:52;5.40;;;2.20;;
41921;SDS011;27609;51.002;5.354;2023-02-28T15:26:58;5.10;;;2.40;;
41921;SDS011;27609;51.002;5.354;2023-02-28T15:29:28;4.30;;;2.78;;
41921;SDS011;27609;51.002;5.354;2023-02-28T15:32:06;13.82;;;6.35;;
41921;SDS011;27609;51.002;5.354;2023-02-28T15:34:40;3.83;;;2.53;;
41921;SDS011;27609;51.002;5.354;2023-02-28T15:40:16;37.47;;;14.95;;
41921;SDS011;27609;51.002;5.354;2023-02-28T15:42:59;6.63;;;4.50;;
41921;SDS011;27609;51.002;5.354;2023-02-28T15:45:41;6.47;;;5.05;;
41921;SDS011;27609;51.002;5.354;2023-02-28T15:48:18;4.78;;;2.85;;
41921;SDS011;27609;51.002;5.354;2023-02-28T15:50:51;3.70;;;3.05;;
41921;SDS011;27609;51.002;5.354;2023-02-28T15:53:23;3.78;;;2.60;;
41921;SDS011;27609;51.002;5.354;2023-02-28T15:56:03;5.43;;;3.22;;
41921;SDS011;27609;51.002;5.354;2023-02-28T15:58:42;10.10;;;3.07;;
41921;SDS011;27609;51.002;5.354;2023-02-28T16:01:16;7.50;;;5.13;;
41921;SDS011;27609;51.002;5.354;2023-02-28T16:04:13;6.90;;;3.22;;
41921;SDS011;27609;51.002;5.354;2023-02-28T16:06:44;4.07;;;3.03;;
41921;SDS011;27609;51.002;5.354;2023-02-28T16:09:30;3.90;;;2.90;;
41921;SDS011;27609;51.002;5.354;2023-02-28T16:11:58;4.70;;;3.30;;
41921;SDS011;27609;51.002;5.354;2023-02-28T16:14:30;3.08;;;2.67;;
41921;SDS011;27609;51.002;5.354;2023-02-28T16:16:57;2.90;;;2.55;;
41921;SDS011;27609;51.002;5.354;2023-02-28T16:19:28;2.67;;;2.35;;
41921;SDS011;27609;51.002;5.354;2023-02-28T16:21:54;5.88;;;2.70;;
41921;SDS011;27609;51.002;5.354;2023-02-28T16:24:20;3.30;;;2.70;;
41921;SDS011;27609;51.002;5.354;2023-02-28T16:26:46;3.92;;;2.80;;
41921;SDS011;27609;51.002;5.354;2023-02-28T16:29:13;2.97;;;2.70;;
41921;SDS011;27609;51.002;5.354;2023-02-28T16:31:49;4.68;;;2.97;;
41921;SDS011;27609;51.002;5.354;2023-02-28T16:34:15;5.65;;;3.55;;
41921;SDS011;27609;51.002;5.354;2023-02-28T16:36:41;8.07;;;2.70;;
41921;SDS011;27609;51.002;5.354;2023-02-28T16:39:06;5.35;;;3.63;;
41921;SDS011;27609;51.002;5.354;2023-02-28T16:41:32;4.25;;;2.70;;
41921;SDS011;27609;51.002;5.354;2023-02-28T16:43:59;4.90;;;2.75;;
41921;SDS011;27609;51.002;5.354;2023-02-28T16:46:33;4.82;;;2.95;;
41921;SDS011;27609;51.002;5.354;2023-02-28T16:48:59;6.75;;;3.28;;
41921;SDS011;27609;51.002;5.354;2023-02-28T16:51:25;3.35;;;2.72;;
41921;SDS011;27609;51.002;5.354;2023-02-28T16:53:51;6.70;;;2.95;;
41921;SDS011;27609;51.002;5.354;2023-02-28T16:56:20;4.65;;;2.78;;
41921;SDS011;27609;51.002;5.354;2023-02-28T16:58:48;4.82;;;3.17;;
41921;SDS011;27609;51.002;5.354;2023-02-28T17:01:16;99.03;;;34.55;;
41921;SDS011;27609;51.002;5.354;2023-02-28T17:03:47;36.10;;;12.45;;
41921;SDS011;27609;51.002;5.354;2023-02-28T17:06:23;4.20;;;2.72;;
41921;SDS011;27609;51.002;5.354;2023-02-28T17:08:53;49.13;;;17.88;;
41921;SDS011;27609;51.002;5.354;2023-02-28T17:11:19;25.00;;;10.82;;
41921;SDS011;27609;51.002;5.354;2023-02-28T17:13:46;16.70;;;9.13;;
41921;SDS011;27609;51.002;5.354;2023-02-28T17:16:23;10.52;;;7.03;;
41921;SDS011;27609;51.002;5.354;2023-02-28T17:18:51;8.85;;;5.18;;
41921;SDS011;27609;51.002;5.354;2023-02-28T17:21:18;6.53;;;4.05;;
41921;SDS011;27609;51.002;5.354;2023-02-28T17:23:44;6.55;;;4.03;;
41921;SDS011;27609;51.002;5.354;2023-02-28T17:26:11;8.07;;;5.25;;
41921;SDS011;27609;51.002;5.354;2023-02-28T17:28:38;10.20;;;6.43;;
41921;SDS011;27609;51.002;5.354;2023-02-28T17:31:04;8.68;;;5.90;;
41921;SDS011;27609;51.002;5.354;2023-02-28T17:33:30;10.27;;;5.57;;
41921;SDS011;27609;51.002;5.354;2023-02-28T17:35:55;8.52;;;6.45;;